sensor_id;sensor_type;location;lat;lon;timestamp;temperature;humidity
61412;DHT22;47278;49.732;7.690;2023-04-15T00:00:07;2.30;99.90
61412;DHT22;47278;49.732;7.690;2023-04-15T00:02:33;2.30;99.90
61412;DHT22;47278;49.732;7.690;2023-04-15T00:04:59;2.30;99.90
61412;DHT22;47278;49.732;7.690;2023-04-15T00:07:25;2.30;99.90
61412;DHT22;47278;49.732;7.690;2023-04-15T00:09:51;2.30;99.90
61412;DHT22;47278;49.732;7.690;2023-04-15T00:12:19;2.20;99.90
61412;DHT22;47278;49.732;7.690;2023-04-15T00:14:46;2.30;99.90
61412;DHT22;47278;49.732;7.690;2023-04-15T00:17:12;2.30;99.90
61412;DHT22;47278;49.732;7.690;2023-04-15T00:19:37;2.30;99.90
61412;DHT22;47278;49.732;7.690;2023-04-15T00:22:03;2.30;99.90
61412;DHT22;47278;49.732;7.690;2023-04-15T00:24:29;2.40;99.90
61412;DHT22;47278;49.732;7.690;2023-04-15T00:26:56;2.40;99.90
61412;DHT22;47278;49.732;7.690;2023-04-15T00:29:22;2.30;99.90
61412;DHT22;47278;49.732;7.690;2023-04-15T00:31:48;2.30;99.90
61412;DHT22;47278;49.732;7.690;2023-04-15T00:34:14;2.20;99.90
61412;DHT22;47278;49.732;7.690;2023-04-15T00:36:39;2.20;99.90
61412;DHT22;47278;49.732;7.690;2023-04-15T00:39:05;2.20;99.90
61412;DHT22;47278;49.732;7.690;2023-04-15T00:41:31;2.50;99.90
61412;DHT22;47278;49.732;7.690;2023-04-15T00:43:58;2.10;99.90
61412;DHT22;47278;49.732;7.690;2023-04-15T00:46:26;2.00;99.90
61412;DHT22;47278;49.732;7.690;2023-04-15T00:48:54;2.10;99.90
61412;DHT22;47278;49.732;7.690;2023-04-15T00:51:19;2.00;99.90
61412;DHT22;47278;49.732;7.690;2023-04-15T00:53:45;2.00;99.90
61412;DHT22;47278;49.732;7.690;2023-04-15T00:56:11;2.00;99.90
61412;DHT22;47278;49.732;7.690;2023-04-15T00:58:37;1.90;99.90
61412;DHT22;47278;49.732;7.690;2023-04-15T01:01:03;1.00;99.90
61412;DHT22;47278;49.732;7.690;2023-04-15T01:03:29;4.80;99.90
61412;DHT22;47278;49.732;7.690;2023-04-15T01:05:55;2.00;99.90
61412;DHT22;47278;49.732;7.690;2023-04-15T01:08:27;1.90;99.90
61412;DHT22;47278;49.732;7.690;2023-04-15T01:10:57;1.90;99.90
61412;DHT22;47278;49.732;7.690;2023-04-15T01:13:24;2.30;99.90
61412;DHT22;47278;49.732;7.690;2023-04-15T01:15:50;1.90;99.90
61412;DHT22;47278;49.732;7.690;2023-04-15T01:18:17;1.90;99.90
61412;DHT22;47278;49.732;7.690;2023-04-15T01:20:43;1.70;99.90
61412;DHT22;47278;49.732;7.690;2023-04-15T01:23:09;1.80;99.90
61412;DHT22;47278;49.732;7.690;2023-04-15T01:25:35;1.70;99.90
61412;DHT22;47278;49.732;7.690;2023-04-15T01:28:01;1.70;99.90
61412;DHT22;47278;49.732;7.690;2023-04-15T01:30:33;1.70;99.90
61412;DHT22;47278;49.732;7.690;2023-04-15T01:32:59;1.70;99.90
61412;DHT22;47278;49.732;7.690;2023-04-15T01:35:24;2.80;99.90
61412;DHT22;47278;49.732;7.690;2023-04-15T01:37:52;1.60;99.90
61412;DHT22;47278;49.732;7.690;2023-04-15T01:40:18;1.50;99.90
61412;DHT22;47278;49.732;7.690;2023-04-15T01:42:45;1.50;99.90
61412;DHT22;47278;49.732;7.690;2023-04-15T01:45:11;1.50;99.90
61412;DHT22;47278;49.732;7.690;2023-04-15T01:47:37;1.30;99.90
61412;DHT22;47278;49.732;7.690;2023-04-15T01:50:04;1.20;99.90
61412;DHT22;47278;49.732;7.690;2023-04-15T01:52:30;1.20;99.90
61412;DHT22;47278;49.732;7.690;2023-04-15T01:54:56;1.30;99.90
61412;DHT22;47278;49.732;7.690;2023-04-15T01:57:22;1.30;99.90
61412;DHT22;47278;49.732;7.690;2023-04-15T01:59:47;1.20;99.90
61412;DHT22;47278;49.732;7.690;2023-04-15T02:02:13;1.20;99.90
61412;DHT22;47278;49.732;7.690;2023-04-15T02:04:39;1.30;99.90
61412;DHT22;47278;49.732;7.690;2023-04-15T02:07:05;1.20;99.90
61412;DHT22;47278;49.732;7.690;2023-04-15T02:09:31;1.30;99.90
61412;DHT22;47278;49.732;7.690;2023-04-15T02:11:57;1.20;99.90
61412;DHT22;47278;49.732;7.690;2023-04-15T02:14:22;1.20;99.90
61412;DHT22;47278;49.732;7.690;2023-04-15T02:16:48;1.30;99.90
61412;DHT22;47278;49.732;7.690;2023-04-15T02:19:14;1.60;99.90
61412;DHT22;47278;49.732;7.690;2023-04-15T02:21:40;1.30;99.90
61412;DHT22;47278;49.732;7.690;2023-04-15T02:24:06;1.20;99.90
61412;DHT22;47278;49.732;7.690;2023-04-15T02:26:31;1.20;99.90
61412;DHT22;47278;49.732;7.690;2023-04-15T02:28:58;1.20;99.90
61412;DHT22;47278;49.732;7.690;2023-04-15T02:31:24;1.20;99.90
61412;DHT22;47278;49.732;7.690;2023-04-15T02:33:50;1.20;99.90
61412;DHT22;47278;49.732;7.690;2023-04-15T02:36:16;1.10;99.90
61412;DHT22;47278;49.732;7.690;2023-04-15T02:38:42;1.00;99.90
61412;DHT22;47278;49.732;7.690;2023-04-15T02:41:11;1.00;99.90
61412;DHT22;47278;49.732;7.690;2023-04-15T02:43:37;1.00;99.90
61412;DHT22;47278;49.732;7.690;2023-04-15T02:46:04;1.00;99.90
61412;DHT22;47278;49.732;7.690;2023-04-15T02:48:30;1.00;99.90
61412;DHT22;47278;49.732;7.690;2023-04-15T02:51:13;1.00;99.90
61412;DHT22;47278;49.732;7.690;2023-04-15T02:53:39;0.90;99.90
61412;DHT22;47278;49.732;7.690;2023-04-15T02:56:06;0.90;99.90
61412;DHT22;47278;49.732;7.690;2023-04-15T02:58:33;0.90;99.90
61412;DHT22;47278;49.732;7.690;2023-04-15T03:00:59;0.90;99.90
61412;DHT22;47278;49.732;7.690;2023-04-15T03:03:25;0.90;99.90
61412;DHT22;47278;49.732;7.690;2023-04-15T03:05:52;0.90;99.90
61412;DHT22;47278;49.732;7.690;2023-04-15T03:08:18;1.80;99.90
61412;DHT22;47278;49.732;7.690;2023-04-15T03:10:43;1.00;99.90
61412;DHT22;47278;49.732;7.690;2023-04-15T03:13:09;0.90;99.90
61412;DHT22;47278;49.732;7.690;2023-04-15T03:15:35;0.90;99.90
61412;DHT22;47278;49.732;7.690;2023-04-15T03:18:00;0.90;99.90
61412;DHT22;47278;49.732;7.690;2023-04-15T03:20:26;0.80;99.90
61412;DHT22;47278;49.732;7.690;2023-04-15T03:22:52;0.80;99.90
61412;DHT22;47278;49.732;7.690;2023-04-15T03:25:18;0.70;99.90
61412;DHT22;47278;49.732;7.690;2023-04-15T03:27:43;-0.30;99.90
61412;DHT22;47278;49.732;7.690;2023-04-15T03:30:09;0.70;99.90
61412;DHT22;47278;49.732;7.690;2023-04-15T03:32:35;0.70;99.90
61412;DHT22;47278;49.732;7.690;2023-04-15T03:35:01;0.70;99.90
61412;DHT22;47278;49.732;7.690;2023-04-15T03:37:26;0.60;99.90
61412;DHT22;47278;49.732;7.690;2023-04-15T03:39:52;0.50;99.90
61412;DHT22;47278;49.732;7.690;2023-04-15T03:42:18;0.50;99.90
61412;DHT22;47278;49.732;7.690;2023-04-15T03:44:43;0.50;99.90
61412;DHT22;47278;49.732;7.690;2023-04-15T03:47:09;0.70;99.90
61412;DHT22;47278;49.732;7.690;2023-04-15T03:49:35;0.70;99.90
61412;DHT22;47278;49.732;7.690;2023-04-15T03:52:01;0.70;99.90
61412;DHT22;47278;49.732;7.690;2023-04-15T03:54:27;0.60;99.90
61412;DHT22;47278;49.732;7.690;2023-04-15T03:56:52;0.60;99.90
61412;DHT22;47278;49.732;7.690;2023-04-15T03:59:18;0.60;99.90
61412;DHT22;47278;49.732;7.690;2023-04-15T04:01:44;0.60;99.90
61412;DHT22;47278;49.732;7.690;2023-04-15T04:04:10;0.60;99.90
61412;DHT22;47278;49.732;7.690;2023-04-15T04:06:35;0.70;99.90
61412;DHT22;47278;49.732;7.690;2023-04-15T04:09:01;0.60;99.90
61412;DHT22;47278;49.732;7.690;2023-04-15T04:11:28;0.50;99.90
61412;DHT22;47278;49.732;7.690;2023-04-15T04:13:54;0.50;99.90
61412;DHT22;47278;49.732;7.690;2023-04-15T04:16:19;0.60;99.90
61412;DHT22;47278;49.732;7.690;2023-04-15T04:18:45;0.50;99.90
61412;DHT22;47278;49.732;7.690;2023-04-15T04:21:11;0.60;99.90
61412;DHT22;47278;49.732;7.690;2023-04-15T04:23:37;0.60;99.90
61412;DHT22;47278;49.732;7.690;2023-04-15T04:26:02;0.50;99.90
61412;DHT22;47278;49.732;7.690;2023-04-15T04:28:28;0.60;99.90
61412;DHT22;47278;49.732;7.690;2023-04-15T04:30:54;0.60;99.90
61412;DHT22;47278;49.732;7.690;2023-04-15T04:33:20;0.60;99.90
61412;DHT22;47278;49.732;7.690;2023-04-15T04:35:45;0.50;99.90
61412;DHT22;47278;49.732;7.690;2023-04-15T04:38:11;0.50;99.90
61412;DHT22;47278;49.732;7.690;2023-04-15T04:40:37;0.50;99.90
61412;DHT22;47278;49.732;7.690;2023-04-15T04:43:02;0.40;99.90
61412;DHT22;47278;49.732;7.690;2023-04-15T04:45:28;0.50;99.90
61412;DHT22;47278;49.732;7.690;2023-04-15T04:47:54;0.50;99.90
61412;DHT22;47278;49.732;7.690;2023-04-15T04:50:20;0.50;99.90
61412;DHT22;47278;49.732;7.690;2023-04-15T04:52:45;0.50;99.90
61412;DHT22;47278;49.732;7.690;2023-04-15T04:55:11;0.40;99.90
61412;DHT22;47278;49.732;7.690;2023-04-15T04:57:37;0.40;99.90
61412;DHT22;47278;49.732;7.690;2023-04-15T05:00:05;0.40;99.90
61412;DHT22;47278;49.732;7.690;2023-04-15T05:02:33;0.30;99.90
61412;DHT22;47278;49.732;7.690;2023-04-15T05:04:58;0.20;99.90
61412;DHT22;47278;49.732;7.690;2023-04-15T05:07:24;0.50;99.90
61412;DHT22;47278;49.732;7.690;2023-04-15T05:09:50;0.40;99.90
61412;DHT22;47278;49.732;7.690;2023-04-15T05:12:16;0.40;99.90
61412;DHT22;47278;49.732;7.690;2023-04-15T05:14:43;0.50;99.90
61412;DHT22;47278;49.732;7.690;2023-04-15T05:17:08;0.50;99.90
61412;DHT22;47278;49.732;7.690;2023-04-15T05:19:34;0.50;99.90
61412;DHT22;47278;49.732;7.690;2023-04-15T05:22:00;0.60;99.90
61412;DHT22;47278;49.732;7.690;2023-04-15T05:24:26;0.70;99.90
61412;DHT22;47278;49.732;7.690;2023-04-15T05:26:51;0.80;99.90
61412;DHT22;47278;49.732;7.690;2023-04-15T05:29:17;0.80;99.90
61412;DHT22;47278;49.732;7.690;2023-04-15T05:31:43;0.90;99.90
61412;DHT22;47278;49.732;7.690;2023-04-15T05:34:09;0.90;99.90
61412;DHT22;47278;49.732;7.690;2023-04-15T05:36:36;1.00;99.90
61412;DHT22;47278;49.732;7.690;2023-04-15T05:39:02;1.10;99.90
61412;DHT22;47278;49.732;7.690;2023-04-15T05:41:28;1.30;99.90
61412;DHT22;47278;49.732;7.690;2023-04-15T05:43:54;1.30;99.90
61412;DHT22;47278;49.732;7.690;2023-04-15T05:46:20;1.80;99.90
61412;DHT22;47278;49.732;7.690;2023-04-15T05:48:47;1.40;99.90
61412;DHT22;47278;49.732;7.690;2023-04-15T05:51:12;1.40;99.90
61412;DHT22;47278;49.732;7.690;2023-04-15T05:53:38;1.50;99.90
61412;DHT22;47278;49.732;7.690;2023-04-15T05:56:06;1.60;99.90
61412;DHT22;47278;49.732;7.690;2023-04-15T05:58:32;1.80;99.90
61412;DHT22;47278;49.732;7.690;2023-04-15T06:00:58;1.80;99.90
61412;DHT22;47278;49.732;7.690;2023-04-15T06:03:23;2.00;99.90
61412;DHT22;47278;49.732;7.690;2023-04-15T06:05:49;2.10;99.90
61412;DHT22;47278;49.732;7.690;2023-04-15T06:08:15;2.30;99.90
61412;DHT22;47278;49.732;7.690;2023-04-15T06:10:41;2.10;99.90
61412;DHT22;47278;49.732;7.690;2023-04-15T06:13:07;2.10;99.90
61412;DHT22;47278;49.732;7.690;2023-04-15T06:15:33;2.10;99.90
61412;DHT22;47278;49.732;7.690;2023-04-15T06:17:58;2.40;99.90
61412;DHT22;47278;49.732;7.690;2023-04-15T06:20:24;2.30;99.90
61412;DHT22;47278;49.732;7.690;2023-04-15T06:22:51;2.30;99.90
61412;DHT22;47278;49.732;7.690;2023-04-15T06:25:16;2.40;99.90
61412;DHT22;47278;49.732;7.690;2023-04-15T06:27:42;2.60;99.90
61412;DHT22;47278;49.732;7.690;2023-04-15T06:30:08;2.80;99.90
61412;DHT22;47278;49.732;7.690;2023-04-15T06:32:34;2.90;99.90
61412;DHT22;47278;49.732;7.690;2023-04-15T06:35:00;2.90;99.90
61412;DHT22;47278;49.732;7.690;2023-04-15T06:37:26;3.00;99.90
61412;DHT22;47278;49.732;7.690;2023-04-15T06:39:51;4.50;99.90
61412;DHT22;47278;49.732;7.690;2023-04-15T06:42:17;3.60;99.90
61412;DHT22;47278;49.732;7.690;2023-04-15T06:44:43;3.80;99.90
61412;DHT22;47278;49.732;7.690;2023-04-15T06:47:08;4.00;99.90
61412;DHT22;47278;49.732;7.690;2023-04-15T06:49:34;4.10;99.90
61412;DHT22;47278;49.732;7.690;2023-04-15T06:52:00;4.20;99.90
61412;DHT22;47278;49.732;7.690;2023-04-15T06:54:26;4.30;99.90
61412;DHT22;47278;49.732;7.690;2023-04-15T06:56:52;4.40;99.90
61412;DHT22;47278;49.732;7.690;2023-04-15T06:59:17;4.70;99.90
61412;DHT22;47278;49.732;7.690;2023-04-15T07:01:43;4.80;99.90
61412;DHT22;47278;49.732;7.690;2023-04-15T07:04:09;5.10;99.90
61412;DHT22;47278;49.732;7.690;2023-04-15T07:06:35;5.20;99.90
61412;DHT22;47278;49.732;7.690;2023-04-15T07:09:01;5.30;99.90
61412;DHT22;47278;49.732;7.690;2023-04-15T07:11:27;5.50;99.90
61412;DHT22;47278;49.732;7.690;2023-04-15T07:13:53;5.70;99.90
61412;DHT22;47278;49.732;7.690;2023-04-15T07:16:19;5.90;99.90
61412;DHT22;47278;49.732;7.690;2023-04-15T07:18:45;6.00;99.90
61412;DHT22;47278;49.732;7.690;2023-04-15T07:21:11;6.00;99.90
61412;DHT22;47278;49.732;7.690;2023-04-15T07:23:37;6.30;99.90
61412;DHT22;47278;49.732;7.690;2023-04-15T07:26:03;6.50;99.90
61412;DHT22;47278;49.732;7.690;2023-04-15T07:28:28;6.90;99.90
61412;DHT22;47278;49.732;7.690;2023-04-15T07:30:54;7.10;99.90
61412;DHT22;47278;49.732;7.690;2023-04-15T07:33:21;7.10;99.90
61412;DHT22;47278;49.732;7.690;2023-04-15T07:35:47;7.20;99.90
61412;DHT22;47278;49.732;7.690;2023-04-15T07:38:13;7.30;99.90
61412;DHT22;47278;49.732;7.690;2023-04-15T07:40:39;7.40;99.90
61412;DHT22;47278;49.732;7.690;2023-04-15T07:43:05;7.50;99.90
61412;DHT22;47278;49.732;7.690;2023-04-15T07:45:34;7.70;99.90
61412;DHT22;47278;49.732;7.690;2023-04-15T07:48:00;7.80;99.90
61412;DHT22;47278;49.732;7.690;2023-04-15T07:50:27;8.00;99.90
61412;DHT22;47278;49.732;7.690;2023-04-15T07:52:53;8.30;99.90
61412;DHT22;47278;49.732;7.690;2023-04-15T07:55:19;8.60;99.90
61412;DHT22;47278;49.732;7.690;2023-04-15T07:57:48;8.80;99.90
61412;DHT22;47278;49.732;7.690;2023-04-15T08:00:14;8.90;99.90
61412;DHT22;47278;49.732;7.690;2023-04-15T08:02:41;9.00;99.90
61412;DHT22;47278;49.732;7.690;2023-04-15T08:05:12;9.10;99.90
61412;DHT22;47278;49.732;7.690;2023-04-15T08:07:39;9.30;99.90
61412;DHT22;47278;49.732;7.690;2023-04-15T08:10:05;9.60;99.90
61412;DHT22;47278;49.732;7.690;2023-04-15T08:12:31;9.70;99.90
61412;DHT22;47278;49.732;7.690;2023-04-15T08:14:57;10.00;99.90
61412;DHT22;47278;49.732;7.690;2023-04-15T08:17:23;10.10;99.90
61412;DHT22;47278;49.732;7.690;2023-04-15T08:19:49;10.30;99.90
61412;DHT22;47278;49.732;7.690;2023-04-15T08:22:15;10.40;99.90
61412;DHT22;47278;49.732;7.690;2023-04-15T08:24:41;10.60;99.90
61412;DHT22;47278;49.732;7.690;2023-04-15T08:27:07;10.60;99.90
61412;DHT22;47278;49.732;7.690;2023-04-15T08:29:33;10.60;99.90
61412;DHT22;47278;49.732;7.690;2023-04-15T08:32:00;10.90;99.90
61412;DHT22;47278;49.732;7.690;2023-04-15T08:34:29;11.00;99.90
61412;DHT22;47278;49.732;7.690;2023-04-15T08:36:55;9.90;99.90
61412;DHT22;47278;49.732;7.690;2023-04-15T08:39:21;11.40;99.90
61412;DHT22;47278;49.732;7.690;2023-04-15T08:44:23;11.90;99.90
61412;DHT22;47278;49.732;7.690;2023-04-15T08:46:51;11.90;99.90
61412;DHT22;47278;49.732;7.690;2023-04-15T08:49:18;12.00;99.90
61412;DHT22;47278;49.732;7.690;2023-04-15T08:51:46;11.90;99.90
61412;DHT22;47278;49.732;7.690;2023-04-15T08:54:12;12.00;99.90
61412;DHT22;47278;49.732;7.690;2023-04-15T08:56:38;12.20;99.90
61412;DHT22;47278;49.732;7.690;2023-04-15T08:59:05;12.40;99.90
61412;DHT22;47278;49.732;7.690;2023-04-15T09:01:31;12.40;99.90
61412;DHT22;47278;49.732;7.690;2023-04-15T09:03:58;12.60;99.90
61412;DHT22;47278;49.732;7.690;2023-04-15T09:06:25;12.90;99.90
61412;DHT22;47278;49.732;7.690;2023-04-15T09:08:51;13.10;99.90
61412;DHT22;47278;49.732;7.690;2023-04-15T09:11:17;13.20;99.90
61412;DHT22;47278;49.732;7.690;2023-04-15T09:13:44;13.40;99.90
61412;DHT22;47278;49.732;7.690;2023-04-15T09:16:10;13.40;99.90
61412;DHT22;47278;49.732;7.690;2023-04-15T09:18:37;13.60;99.90
61412;DHT22;47278;49.732;7.690;2023-04-15T09:21:11;13.70;99.90
61412;DHT22;47278;49.732;7.690;2023-04-15T09:23:52;13.60;99.90
61412;DHT22;47278;49.732;7.690;2023-04-15T09:26:18;13.70;99.90
61412;DHT22;47278;49.732;7.690;2023-04-15T09:28:44;13.90;99.90
61412;DHT22;47278;49.732;7.690;2023-04-15T09:31:10;14.00;99.90
61412;DHT22;47278;49.732;7.690;2023-04-15T09:33:53;14.10;99.90
61412;DHT22;47278;49.732;7.690;2023-04-15T09:36:19;14.10;99.90
61412;DHT22;47278;49.732;7.690;2023-04-15T09:38:56;14.30;99.90
61412;DHT22;47278;49.732;7.690;2023-04-15T09:41:22;14.50;99.90
61412;DHT22;47278;49.732;7.690;2023-04-15T09:43:48;14.60;99.90
61412;DHT22;47278;49.732;7.690;2023-04-15T09:46:14;14.70;99.90
61412;DHT22;47278;49.732;7.690;2023-04-15T09:48:40;14.50;99.90
61412;DHT22;47278;49.732;7.690;2023-04-15T09:51:06;14.60;99.90
61412;DHT22;47278;49.732;7.690;2023-04-15T09:53:34;14.40;99.90
61412;DHT22;47278;49.732;7.690;2023-04-15T09:56:00;14.40;99.90
61412;DHT22;47278;49.732;7.690;2023-04-15T09:58:31;14.30;99.90
61412;DHT22;47278;49.732;7.690;2023-04-15T10:00:58;14.40;99.90
61412;DHT22;47278;49.732;7.690;2023-04-15T10:03:30;14.50;99.90
61412;DHT22;47278;49.732;7.690;2023-04-15T10:05:58;14.50;99.90
61412;DHT22;47278;49.732;7.690;2023-04-15T10:08:28;14.50;99.90
61412;DHT22;47278;49.732;7.690;2023-04-15T10:10:54;14.40;99.90
61412;DHT22;47278;49.732;7.690;2023-04-15T10:13:24;14.50;99.90
61412;DHT22;47278;49.732;7.690;2023-04-15T10:16:10;14.60;99.90
61412;DHT22;47278;49.732;7.690;2023-04-15T10:18:41;14.70;99.90
61412;DHT22;47278;49.732;7.690;2023-04-15T10:21:08;14.70;99.90
61412;DHT22;47278;49.732;7.690;2023-04-15T10:23:34;14.80;99.90
61412;DHT22;47278;49.732;7.690;2023-04-15T10:26:00;14.80;99.90
61412;DHT22;47278;49.732;7.690;2023-04-15T10:28:27;15.00;99.90
61412;DHT22;47278;49.732;7.690;2023-04-15T10:30:52;15.10;99.90
61412;DHT22;47278;49.732;7.690;2023-04-15T10:33:21;15.20;99.90
61412;DHT22;47278;49.732;7.690;2023-04-15T10:35:48;16.70;99.90
61412;DHT22;47278;49.732;7.690;2023-04-15T10:38:36;15.60;99.90
61412;DHT22;47278;49.732;7.690;2023-04-15T10:41:19;15.80;99.90
61412;DHT22;47278;49.732;7.690;2023-04-15T10:43:53;15.80;99.90
61412;DHT22;47278;49.732;7.690;2023-04-15T10:46:43;15.50;99.90
61412;DHT22;47278;49.732;7.690;2023-04-15T10:49:15;15.40;99.90
61412;DHT22;47278;49.732;7.690;2023-04-15T10:51:42;15.60;99.90
61412;DHT22;47278;49.732;7.690;2023-04-15T10:54:16;15.90;99.90
61412;DHT22;47278;49.732;7.690;2023-04-15T11:02:59;16.70;99.90
61412;DHT22;47278;49.732;7.690;2023-04-15T11:08:07;17.10;99.90
61412;DHT22;47278;49.732;7.690;2023-04-15T11:15:39;16.90;99.90
61412;DHT22;47278;49.732;7.690;2023-04-15T11:18:22;16.40;99.90
61412;DHT22;47278;49.732;7.690;2023-04-15T11:20:52;16.60;99.90
61412;DHT22;47278;49.732;7.690;2023-04-15T11:23:50;16.80;99.90
61412;DHT22;47278;49.732;7.690;2023-04-15T11:26:16;17.10;99.90
61412;DHT22;47278;49.732;7.690;2023-04-15T11:28:43;17.20;99.90
61412;DHT22;47278;49.732;7.690;2023-04-15T11:31:16;17.10;99.90
61412;DHT22;47278;49.732;7.690;2023-04-15T11:33:57;16.90;99.90
61412;DHT22;47278;49.732;7.690;2023-04-15T11:36:24;16.40;99.90
61412;DHT22;47278;49.732;7.690;2023-04-15T11:38:51;16.70;99.90
61412;DHT22;47278;49.732;7.690;2023-04-15T11:41:21;16.30;99.90
61412;DHT22;47278;49.732;7.690;2023-04-15T11:43:47;16.20;99.90
61412;DHT22;47278;49.732;7.690;2023-04-15T11:46:13;15.80;99.90
61412;DHT22;47278;49.732;7.690;2023-04-15T11:48:42;16.10;99.90
61412;DHT22;47278;49.732;7.690;2023-04-15T11:51:09;16.20;99.90
61412;DHT22;47278;49.732;7.690;2023-04-15T11:53:40;16.50;99.90
61412;DHT22;47278;49.732;7.690;2023-04-15T11:56:18;16.30;99.90
61412;DHT22;47278;49.732;7.690;2023-04-15T11:58:44;16.00;99.90
61412;DHT22;47278;49.732;7.690;2023-04-15T12:01:11;15.50;99.90
61412;DHT22;47278;49.732;7.690;2023-04-15T12:03:44;15.90;99.90
61412;DHT22;47278;49.732;7.690;2023-04-15T12:06:19;16.50;99.90
61412;DHT22;47278;49.732;7.690;2023-04-15T12:16:34;16.40;99.90
61412;DHT22;47278;49.732;7.690;2023-04-15T12:19:04;16.20;99.90
61412;DHT22;47278;49.732;7.690;2023-04-15T12:21:34;16.50;99.90
61412;DHT22;47278;49.732;7.690;2023-04-15T12:24:02;16.20;99.90
61412;DHT22;47278;49.732;7.690;2023-04-15T12:26:32;14.50;99.90
61412;DHT22;47278;49.732;7.690;2023-04-15T12:29:05;13.60;99.90
61412;DHT22;47278;49.732;7.690;2023-04-15T12:31:35;16.10;99.90
61412;DHT22;47278;49.732;7.690;2023-04-15T12:34:02;16.10;99.90
61412;DHT22;47278;49.732;7.690;2023-04-15T12:36:29;16.10;99.90
61412;DHT22;47278;49.732;7.690;2023-04-15T12:39:03;16.10;99.90
61412;DHT22;47278;49.732;7.690;2023-04-15T12:41:30;16.20;99.90
61412;DHT22;47278;49.732;7.690;2023-04-15T12:43:56;16.30;99.90
61412;DHT22;47278;49.732;7.690;2023-04-15T12:46:22;16.20;99.90
61412;DHT22;47278;49.732;7.690;2023-04-15T12:48:47;16.10;99.90
61412;DHT22;47278;49.732;7.690;2023-04-15T12:51:14;16.00;99.90
61412;DHT22;47278;49.732;7.690;2023-04-15T12:53:40;15.80;99.90
61412;DHT22;47278;49.732;7.690;2023-04-15T12:56:06;15.90;99.90
61412;DHT22;47278;49.732;7.690;2023-04-15T12:58:32;15.80;99.90
61412;DHT22;47278;49.732;7.690;2023-04-15T13:00:58;15.80;99.90
61412;DHT22;47278;49.732;7.690;2023-04-15T13:03:24;15.70;99.90
61412;DHT22;47278;49.732;7.690;2023-04-15T13:05:50;15.70;99.90
61412;DHT22;47278;49.732;7.690;2023-04-15T13:08:16;15.50;99.90
61412;DHT22;47278;49.732;7.690;2023-04-15T13:10:42;15.40;99.90
61412;DHT22;47278;49.732;7.690;2023-04-15T13:13:08;15.90;99.90
61412;DHT22;47278;49.732;7.690;2023-04-15T13:15:34;16.40;99.90
61412;DHT22;47278;49.732;7.690;2023-04-15T13:17:59;16.80;99.90
61412;DHT22;47278;49.732;7.690;2023-04-15T13:20:25;16.90;99.90
61412;DHT22;47278;49.732;7.690;2023-04-15T13:22:52;16.70;99.90
61412;DHT22;47278;49.732;7.690;2023-04-15T13:25:18;16.60;99.90
61412;DHT22;47278;49.732;7.690;2023-04-15T13:27:44;16.30;99.90
61412;DHT22;47278;49.732;7.690;2023-04-15T13:30:10;15.30;99.90
61412;DHT22;47278;49.732;7.690;2023-04-15T13:32:36;15.80;99.90
61412;DHT22;47278;49.732;7.690;2023-04-15T13:35:02;15.90;99.90
61412;DHT22;47278;49.732;7.690;2023-04-15T13:37:30;15.70;99.90
61412;DHT22;47278;49.732;7.690;2023-04-15T13:39:56;15.70;99.90
61412;DHT22;47278;49.732;7.690;2023-04-15T13:42:22;15.50;99.90
61412;DHT22;47278;49.732;7.690;2023-04-15T13:44:49;15.50;99.90
61412;DHT22;47278;49.732;7.690;2023-04-15T13:47:16;15.40;99.90
61412;DHT22;47278;49.732;7.690;2023-04-15T13:49:43;15.40;99.90
61412;DHT22;47278;49.732;7.690;2023-04-15T13:52:08;15.40;99.90
61412;DHT22;47278;49.732;7.690;2023-04-15T13:54:35;15.50;99.90
61412;DHT22;47278;49.732;7.690;2023-04-15T13:57:01;15.30;99.90
61412;DHT22;47278;49.732;7.690;2023-04-15T13:59:26;15.40;99.90
61412;DHT22;47278;49.732;7.690;2023-04-15T14:01:52;15.50;99.90
61412;DHT22;47278;49.732;7.690;2023-04-15T14:04:18;15.60;99.90
61412;DHT22;47278;49.732;7.690;2023-04-15T14:06:43;15.40;99.90
61412;DHT22;47278;49.732;7.690;2023-04-15T14:09:09;15.20;99.90
61412;DHT22;47278;49.732;7.690;2023-04-15T14:11:38;15.20;99.90
61412;DHT22;47278;49.732;7.690;2023-04-15T14:14:04;15.30;99.90
61412;DHT22;47278;49.732;7.690;2023-04-15T14:16:33;15.00;99.90
61412;DHT22;47278;49.732;7.690;2023-04-15T14:18:59;15.40;99.90
61412;DHT22;47278;49.732;7.690;2023-04-15T14:21:25;15.20;99.90
61412;DHT22;47278;49.732;7.690;2023-04-15T14:23:52;14.10;99.90
61412;DHT22;47278;49.732;7.690;2023-04-15T14:26:18;14.70;99.90
61412;DHT22;47278;49.732;7.690;2023-04-15T14:28:45;14.70;99.90
61412;DHT22;47278;49.732;7.690;2023-04-15T14:31:13;14.70;99.90
61412;DHT22;47278;49.732;7.690;2023-04-15T14:33:39;14.50;99.90
61412;DHT22;47278;49.732;7.690;2023-04-15T14:36:06;14.40;99.90
61412;DHT22;47278;49.732;7.690;2023-04-15T14:38:36;14.30;99.90
61412;DHT22;47278;49.732;7.690;2023-04-15T14:41:06;14.30;99.90
61412;DHT22;47278;49.732;7.690;2023-04-15T14:43:33;14.10;99.90
61412;DHT22;47278;49.732;7.690;2023-04-15T14:45:58;13.90;99.90
61412;DHT22;47278;49.732;7.690;2023-04-15T14:48:24;13.70;99.90
61412;DHT22;47278;49.732;7.690;2023-04-15T14:50:51;11.10;99.90
61412;DHT22;47278;49.732;7.690;2023-04-15T14:53:17;13.40;99.90
61412;DHT22;47278;49.732;7.690;2023-04-15T14:55:43;13.30;99.90
61412;DHT22;47278;49.732;7.690;2023-04-15T14:58:09;13.20;99.90
61412;DHT22;47278;49.732;7.690;2023-04-15T15:00:36;13.20;99.90
61412;DHT22;47278;49.732;7.690;2023-04-15T15:03:05;13.20;99.90
61412;DHT22;47278;49.732;7.690;2023-04-15T15:05:40;13.10;99.90
61412;DHT22;47278;49.732;7.690;2023-04-15T15:08:07;13.00;99.90
61412;DHT22;47278;49.732;7.690;2023-04-15T15:10:34;13.00;99.90
61412;DHT22;47278;49.732;7.690;2023-04-15T15:13:02;12.90;99.90
61412;DHT22;47278;49.732;7.690;2023-04-15T15:15:28;12.80;99.90
61412;DHT22;47278;49.732;7.690;2023-04-15T15:17:54;12.70;99.90
61412;DHT22;47278;49.732;7.690;2023-04-15T15:20:20;12.80;99.90
61412;DHT22;47278;49.732;7.690;2023-04-15T15:22:46;12.70;99.90
61412;DHT22;47278;49.732;7.690;2023-04-15T15:25:12;12.70;99.90
61412;DHT22;47278;49.732;7.690;2023-04-15T15:27:37;12.70;99.90
61412;DHT22;47278;49.732;7.690;2023-04-15T15:30:03;12.70;99.90
61412;DHT22;47278;49.732;7.690;2023-04-15T15:32:30;12.60;99.90
61412;DHT22;47278;49.732;7.690;2023-04-15T15:34:56;12.40;99.90
61412;DHT22;47278;49.732;7.690;2023-04-15T15:37:22;12.30;99.90
61412;DHT22;47278;49.732;7.690;2023-04-15T15:39:47;12.20;99.90
61412;DHT22;47278;49.732;7.690;2023-04-15T15:42:15;12.20;99.90
61412;DHT22;47278;49.732;7.690;2023-04-15T15:44:42;12.20;99.90
61412;DHT22;47278;49.732;7.690;2023-04-15T15:47:07;12.10;99.90
61412;DHT22;47278;49.732;7.690;2023-04-15T15:49:33;12.00;99.90
61412;DHT22;47278;49.732;7.690;2023-04-15T15:51:59;11.90;99.90
61412;DHT22;47278;49.732;7.690;2023-04-15T15:54:25;11.80;99.90
61412;DHT22;47278;49.732;7.690;2023-04-15T15:56:50;11.80;99.90
61412;DHT22;47278;49.732;7.690;2023-04-15T15:59:16;11.70;99.90
61412;DHT22;47278;49.732;7.690;2023-04-15T16:01:42;11.70;99.90